createdAt,value
2023-05-19T00:01:51.135Z,6.15
2023-05-19T00:04:22.799Z,6.43
2023-05-19T00:06:52.347Z,5.95
2023-05-19T00:09:21.380Z,6.35
2023-05-19T00:11:50.700Z,6.40
2023-05-19T00:14:22.531Z,6.70
2023-05-19T00:16:51.768Z,5.97
2023-05-19T00:19:20.021Z,6.35
2023-05-19T00:21:49.279Z,5.68
2023-05-19T00:24:17.552Z,7.00
2023-05-19T00:26:45.609Z,6.35
2023-05-19T00:29:13.895Z,6.55
2023-05-19T00:31:42.619Z,6.05
2023-05-19T00:34:10.995Z,5.50
2023-05-19T00:36:39.050Z,5.80
2023-05-19T00:39:07.575Z,6.30
2023-05-19T00:41:36.365Z,6.30
2023-05-19T00:44:04.815Z,6.22
2023-05-19T00:46:32.864Z,5.70
2023-05-19T00:49:00.996Z,5.85
2023-05-19T00:51:30.058Z,5.95
2023-05-19T00:53:58.770Z,6.20
2023-05-19T00:56:27.443Z,6.63
2023-05-19T00:58:56.011Z,6.45
2023-05-19T01:01:27.126Z,5.93
2023-05-19T01:03:59.358Z,6.10
2023-05-19T01:06:28.078Z,5.82
2023-05-19T01:08:57.785Z,5.95
2023-05-19T01:11:25.978Z,6.10
2023-05-19T01:13:54.245Z,6.15
2023-05-19T01:16:40.938Z,6.75
2023-05-19T01:19:25.677Z,6.00
2023-05-19T01:22:07.179Z,6.07
2023-05-19T01:24:59.173Z,5.93
2023-05-19T01:27:48.993Z,6.47
2023-05-19T01:30:20.012Z,6.50
2023-05-19T01:32:52.831Z,5.97
2023-05-19T01:35:25.113Z,6.05
2023-05-19T01:37:57.431Z,6.50
2023-05-19T01:40:27.024Z,6.05
2023-05-19T01:42:57.815Z,6.18
2023-05-19T01:45:29.746Z,5.57
2023-05-19T01:48:00.315Z,5.47
2023-05-19T01:50:30.054Z,5.30
2023-05-19T01:52:58.849Z,5.40
2023-05-19T01:55:27.473Z,5.72
2023-05-19T01:58:18.011Z,5.32
2023-05-19T02:00:53.209Z,5.00
2023-05-19T02:03:39.261Z,5.40
2023-05-19T02:06:16.357Z,6.10
2023-05-19T02:09:02.620Z,6.10
2023-05-19T02:11:56.997Z,5.65
2023-05-19T02:14:38.772Z,5.40
2023-05-19T02:17:07.228Z,6.05
2023-05-19T02:19:39.388Z,5.97
2023-05-19T02:22:07.878Z,5.82
2023-05-19T02:24:37.891Z,6.35
2023-05-19T02:27:06.609Z,5.30
2023-05-19T02:29:35.265Z,5.53
2023-05-19T02:32:03.552Z,6.15
2023-05-19T02:34:31.842Z,5.90
2023-05-19T02:37:00.264Z,5.32
2023-05-19T02:39:29.610Z,5.75
2023-05-19T02:41:57.831Z,5.88
2023-05-19T02:44:25.898Z,5.70
2023-05-19T02:46:54.202Z,5.40
2023-05-19T02:49:22.334Z,5.85
2023-05-19T02:51:50.718Z,5.32
2023-05-19T02:54:21.990Z,5.13
2023-05-19T02:56:50.297Z,5.05
2023-05-19T02:59:18.221Z,4.93
2023-05-19T03:01:47.945Z,4.70
2023-05-19T03:04:15.836Z,4.63
2023-05-19T03:06:45.856Z,4.93
2023-05-19T03:09:14.836Z,4.65
2023-05-19T03:11:43.391Z,4.90
2023-05-19T03:14:12.443Z,5.25
2023-05-19T03:16:42.713Z,5.10
2023-05-19T03:19:10.811Z,5.00
2023-05-19T03:21:41.660Z,5.30
2023-05-19T03:24:09.531Z,5.60
2023-05-19T03:26:38.343Z,5.38
2023-05-19T03:29:08.715Z,5.55
2023-05-19T03:31:38.570Z,5.30
2023-05-19T03:34:06.608Z,4.63
2023-05-19T03:36:39.937Z,4.80
2023-05-19T03:39:13.333Z,4.28
2023-05-19T03:41:41.964Z,4.68
2023-05-19T03:44:09.753Z,4.57
2023-05-19T03:46:38.744Z,4.50
2023-05-19T03:49:26.190Z,4.90
2023-05-19T03:52:13.237Z,5.80
2023-05-19T03:54:54.704Z,4.82
2023-05-19T03:57:23.026Z,5.57
2023-05-19T03:59:50.992Z,4.95
2023-05-19T04:02:19.488Z,4.85
2023-05-19T04:04:50.926Z,5.45
2023-05-19T04:07:19.763Z,5.32
2023-05-19T04:09:48.920Z,5.40
2023-05-19T04:12:17.328Z,4.88
2023-05-19T04:14:46.400Z,5.70
2023-05-19T04:17:14.746Z,5.05
2023-05-19T04:19:42.720Z,4.82
2023-05-19T04:22:10.918Z,4.82
2023-05-19T04:24:38.851Z,5.20
2023-05-19T04:27:12.332Z,4.97
2023-05-19T04:29:41.425Z,5.45
2023-05-19T04:32:10.989Z,5.28
2023-05-19T04:34:40.701Z,4.85
2023-05-19T04:37:10.550Z,5.07
2023-05-19T04:39:41.634Z,5.88
2023-05-19T04:42:11.676Z,5.90
2023-05-19T04:44:40.436Z,5.45
2023-05-19T04:47:11.901Z,5.90
2023-05-19T04:49:40.035Z,5.60
2023-05-19T04:52:11.146Z,6.18
2023-05-19T04:54:40.536Z,5.90
2023-05-19T04:57:11.609Z,5.60
2023-05-19T04:59:41.013Z,5.80
2023-05-19T05:02:10.095Z,5.60
2023-05-19T05:04:42.786Z,6.00
2023-05-19T05:07:11.747Z,6.50
2023-05-19T05:09:40.374Z,6.50
2023-05-19T05:12:09.677Z,6.60
2023-05-19T05:14:40.533Z,6.85
2023-05-19T05:17:11.225Z,6.20
2023-05-19T05:19:39.529Z,6.80
2023-05-19T05:22:08.464Z,7.28
2023-05-19T05:24:40.300Z,6.75
2023-05-19T05:27:10.550Z,7.45
2023-05-19T05:29:38.730Z,7.47
2023-05-19T05:32:08.686Z,7.75
2023-05-19T05:34:38.408Z,7.70
2023-05-19T05:37:06.958Z,7.30
2023-05-19T05:39:35.966Z,7.10
2023-05-19T05:42:04.402Z,6.90
2023-05-19T05:44:34.545Z,6.07
2023-05-19T05:47:04.559Z,5.55
2023-05-19T05:49:33.149Z,6.55
2023-05-19T05:52:06.111Z,6.45
2023-05-19T05:54:40.310Z,5.85
2023-05-19T05:57:09.917Z,6.28
2023-05-19T05:59:38.926Z,6.40
2023-05-19T06:02:07.849Z,6.72
2023-05-19T06:04:36.558Z,8.75
2023-05-19T06:07:05.803Z,6.43
2023-05-19T06:09:37.620Z,6.25
2023-05-19T06:12:07.770Z,5.85
2023-05-19T06:14:41.468Z,5.93
2023-05-19T06:17:36.398Z,5.75
2023-05-19T06:20:09.159Z,6.10
2023-05-19T06:22:40.964Z,5.50
2023-05-19T06:25:10.228Z,6.15
2023-05-19T06:27:38.741Z,5.38
2023-05-19T06:30:10.284Z,5.38
2023-05-19T06:32:58.986Z,6.05
2023-05-19T06:35:27.694Z,5.85
2023-05-19T06:37:56.654Z,5.75
2023-05-19T06:40:24.851Z,5.75
2023-05-19T06:42:53.232Z,5.45
2023-05-19T06:45:29.599Z,5.03
2023-05-19T06:47:59.773Z,5.50
2023-05-19T06:50:28.519Z,5.20
2023-05-19T06:52:59.174Z,5.20
2023-05-19T06:55:28.053Z,5.60
2023-05-19T06:57:56.605Z,5.20
2023-05-19T07:00:24.450Z,5.43
2023-05-19T07:02:54.518Z,5.85
2023-05-19T07:05:23.136Z,5.80
2023-05-19T07:07:56.873Z,5.63
2023-05-19T07:10:28.742Z,5.93
2023-05-19T07:12:58.739Z,5.40
2023-05-19T07:15:30.404Z,6.03
2023-05-19T07:17:59.376Z,4.97
2023-05-19T07:20:27.509Z,5.13
2023-05-19T07:22:56.494Z,5.30
2023-05-19T07:25:25.092Z,5.25
2023-05-19T07:27:53.698Z,4.95
2023-05-19T07:30:21.581Z,5.40
2023-05-19T07:32:50.843Z,4.70
2023-05-19T07:35:18.875Z,5.53
2023-05-19T07:37:47.097Z,5.28
2023-05-19T07:40:15.791Z,4.88
2023-05-19T07:42:49.012Z,5.10
2023-05-19T07:45:18.187Z,4.95
2023-05-19T07:47:46.580Z,5.10
2023-05-19T07:50:14.493Z,4.70
2023-05-19T07:52:43.044Z,4.82
2023-05-19T07:55:11.934Z,4.97
2023-05-19T07:57:40.177Z,5.13
2023-05-19T08:00:10.345Z,4.63
2023-05-19T08:02:40.686Z,4.78
2023-05-19T08:05:09.763Z,4.53
2023-05-19T08:07:38.184Z,5.10
2023-05-19T08:10:06.494Z,5.10
2023-05-19T08:12:34.923Z,5.20
2023-05-19T08:15:02.926Z,5.32
2023-05-19T08:17:33.195Z,4.97
2023-05-19T08:34:59.889Z,4.10
2023-05-19T08:37:28.681Z,4.03
2023-05-19T08:39:57.707Z,3.80
2023-05-19T08:42:26.147Z,3.70
2023-05-19T08:44:54.228Z,3.78
2023-05-19T08:47:23.133Z,3.50
2023-05-19T08:49:53.580Z,3.78
2023-05-19T08:52:36.723Z,3.90
2023-05-19T08:55:09.939Z,4.10
2023-05-19T08:57:38.797Z,3.70
2023-05-19T09:00:12.421Z,3.97
2023-05-19T09:02:50.618Z,3.75
2023-05-19T09:05:30.052Z,3.58
2023-05-19T09:07:58.462Z,3.75
2023-05-19T09:10:28.480Z,4.20
2023-05-19T09:12:57.965Z,3.90
2023-05-19T09:15:28.745Z,4.10
2023-05-19T09:18:11.853Z,4.03
2023-05-19T09:20:41.864Z,4.55
2023-05-19T09:23:18.073Z,4.57
2023-05-19T09:25:50.464Z,4.25
2023-05-19T09:28:29.717Z,3.60
2023-05-19T09:31:15.612Z,4.03
2023-05-19T09:33:45.759Z,4.22
2023-05-19T09:36:14.555Z,4.32
2023-05-19T09:38:42.916Z,4.03
2023-05-19T09:41:11.380Z,4.32
2023-05-19T09:43:39.848Z,4.05
2023-05-19T09:46:14.960Z,4.28
2023-05-19T09:48:45.263Z,4.90
2023-05-19T09:51:13.269Z,4.25
2023-05-19T09:53:42.443Z,4.30
2023-05-19T09:56:10.507Z,4.93
2023-05-19T09:58:42.940Z,4.90
2023-05-19T10:01:11.579Z,3.97
2023-05-19T10:03:40.790Z,5.15
2023-05-19T10:06:09.658Z,5.43
2023-05-19T10:08:40.026Z,4.90
2023-05-19T10:11:08.904Z,4.85
2023-05-19T10:13:39.328Z,4.88
2023-05-19T10:16:08.956Z,4.85
2023-05-19T10:18:40.023Z,4.75
2023-05-19T10:21:09.293Z,4.70
2023-05-19T10:23:37.713Z,5.10
2023-05-19T10:26:07.134Z,4.68
2023-05-19T10:28:39.599Z,5.25
2023-05-19T10:31:11.827Z,4.80
2023-05-19T10:33:58.628Z,4.43
2023-05-19T10:36:44.640Z,4.63
2023-05-19T10:39:25.670Z,4.45
2023-05-19T10:42:24.848Z,5.10
2023-05-19T10:45:18.382Z,4.75
2023-05-19T10:47:46.740Z,5.20
2023-05-19T10:50:16.015Z,4.95
2023-05-19T10:52:45.230Z,4.65
2023-05-19T10:55:17.899Z,5.18
2023-05-19T10:57:57.188Z,4.65
2023-05-19T11:00:30.583Z,5.50
2023-05-19T11:03:14.910Z,5.80
2023-05-19T11:05:45.953Z,5.45
2023-05-19T11:08:14.025Z,5.88
2023-05-19T11:10:47.040Z,5.47
2023-05-19T11:13:23.526Z,5.20
2023-05-19T11:15:52.284Z,5.03
2023-05-19T11:18:21.339Z,5.55
2023-05-19T11:20:58.661Z,5.45
2023-05-19T11:23:26.998Z,6.40
2023-05-19T11:25:55.296Z,5.60
2023-05-19T11:28:28.490Z,5.00
2023-05-19T11:30:59.376Z,4.82
2023-05-19T11:33:30.487Z,4.97
2023-05-19T11:35:58.931Z,4.80
2023-05-19T11:38:30.384Z,4.50
2023-05-19T11:40:59.363Z,4.90
2023-05-19T11:43:27.809Z,4.75
2023-05-19T11:45:56.423Z,4.63
2023-05-19T11:48:26.969Z,4.85
2023-05-19T11:50:57.116Z,4.30
2023-05-19T11:53:25.264Z,3.97
2023-05-19T11:55:54.562Z,4.63
2023-05-19T11:58:28.071Z,4.63
2023-05-19T12:00:57.553Z,4.40
2023-05-19T12:03:29.004Z,4.30
2023-05-19T12:05:57.660Z,4.72
2023-05-19T12:08:26.096Z,4.68
2023-05-19T12:10:54.671Z,3.95
2023-05-19T12:13:23.735Z,5.10
2023-05-19T12:16:00.946Z,4.37
2023-05-19T12:18:32.150Z,4.63
2023-05-19T12:21:00.903Z,5.40
2023-05-19T12:23:31.087Z,4.78
2023-05-19T12:26:00.304Z,5.07
2023-05-19T12:28:31.445Z,5.30
2023-05-19T12:31:00.028Z,4.93
2023-05-19T12:33:27.992Z,4.50
2023-05-19T12:35:56.561Z,4.80
2023-05-19T12:38:24.535Z,5.10
2023-05-19T12:40:53.198Z,4.88
2023-05-19T12:43:22.823Z,5.70
2023-05-19T12:45:51.671Z,4.72
2023-05-19T12:48:23.006Z,4.70
2023-05-19T12:50:57.178Z,4.50
2023-05-19T12:53:27.470Z,4.50
2023-05-19T15:07:36.002Z,5.63
2023-05-19T15:10:05.210Z,6.53
2023-05-19T15:12:33.254Z,8.18
2023-05-19T15:15:01.651Z,7.65
2023-05-19T15:17:30.122Z,7.15
2023-05-19T15:19:58.440Z,6.72
2023-05-19T15:22:27.391Z,7.28
2023-05-19T15:24:55.830Z,8.25
2023-05-19T15:27:23.835Z,7.20
2023-05-19T15:29:52.232Z,7.22
2023-05-19T15:32:20.490Z,7.70
2023-05-19T15:34:49.281Z,6.85
2023-05-19T15:37:17.333Z,6.65
2023-05-19T15:39:45.869Z,6.40
2023-05-19T15:42:13.710Z,7.07
2023-05-19T15:44:41.963Z,6.68
2023-05-19T15:47:10.075Z,7.80
2023-05-19T15:49:38.450Z,6.55
2023-05-19T15:52:06.894Z,6.93
2023-05-19T15:54:35.274Z,7.68
2023-05-19T15:57:03.094Z,7.50
2023-05-19T15:59:31.472Z,7.07
2023-05-19T16:01:59.633Z,8.13
2023-05-19T16:04:27.840Z,7.75
2023-05-19T16:06:55.944Z,7.43
2023-05-19T16:09:24.185Z,7.78
2023-05-19T16:11:52.354Z,8.40
2023-05-19T16:14:21.136Z,8.45
2023-05-19T16:16:49.220Z,9.13
2023-05-19T16:19:17.985Z,8.02
2023-05-19T16:21:46.085Z,8.73
2023-05-19T16:24:14.322Z,8.73
2023-05-19T16:26:42.192Z,8.55
2023-05-19T16:29:10.425Z,8.30
2023-05-19T16:31:39.240Z,8.40
2023-05-19T16:34:07.657Z,9.77
2023-05-19T16:36:35.690Z,10.25
2023-05-19T16:39:04.290Z,12.38
2023-05-19T16:41:32.157Z,11.20
2023-05-19T16:44:02.554Z,11.13
2023-05-19T16:46:31.669Z,10.02
2023-05-19T16:49:00.575Z,9.30
2023-05-19T16:51:28.476Z,9.95
2023-05-19T16:53:56.833Z,11.18
2023-05-19T16:56:24.779Z,12.35
2023-05-19T16:58:54.908Z,11.52
2023-05-19T17:01:23.133Z,12.43
2023-05-19T17:03:51.880Z,13.43
2023-05-19T17:06:19.804Z,11.27
2023-05-19T17:08:48.164Z,11.75
2023-05-19T17:11:16.175Z,11.40
2023-05-19T17:13:46.605Z,11.38
2023-05-19T17:16:14.851Z,10.27
2023-05-19T17:18:44.072Z,10.57
2023-05-19T17:21:12.311Z,11.27
2023-05-19T17:23:42.167Z,10.43
2023-05-19T17:26:10.116Z,11.00
2023-05-19T17:28:38.393Z,9.70
2023-05-19T17:31:12.696Z,10.70
2023-05-19T17:33:41.548Z,10.30
2023-05-19T17:36:09.934Z,10.48
2023-05-19T17:38:40.594Z,8.98
2023-05-19T17:41:14.263Z,11.63
2023-05-19T17:43:43.156Z,11.60
2023-05-19T17:46:12.041Z,10.68
2023-05-19T17:48:40.501Z,12.25
2023-05-19T17:51:08.520Z,12.23
2023-05-19T17:53:37.370Z,12.43
2023-05-19T17:56:07.608Z,11.63
2023-05-19T17:58:36.637Z,11.32
2023-05-19T18:01:04.849Z,9.55
2023-05-19T18:03:33.656Z,11.00
2023-05-19T18:06:02.491Z,11.52
2023-05-19T18:08:32.235Z,11.68
2023-05-19T18:11:01.029Z,9.70
2023-05-19T18:13:29.281Z,10.75
2023-05-19T18:15:59.416Z,12.43
2023-05-19T18:18:27.892Z,11.45
2023-05-19T18:20:55.813Z,12.27
2023-05-19T18:23:24.120Z,13.23
2023-05-19T18:25:53.961Z,13.70
2023-05-19T18:28:24.134Z,13.23
2023-05-19T18:31:15.890Z,12.23
2023-05-19T18:33:44.528Z,13.10
2023-05-19T18:36:15.755Z,12.13
2023-05-19T18:38:44.351Z,11.18
2023-05-19T18:41:12.331Z,9.85
2023-05-19T18:43:40.693Z,10.70
2023-05-19T18:46:08.556Z,10.80
2023-05-19T18:48:36.906Z,10.15
2023-05-19T18:51:05.273Z,10.27
2023-05-19T18:53:35.069Z,11.43
2023-05-19T18:56:06.800Z,11.35
2023-05-19T18:58:35.199Z,10.65
2023-05-19T19:01:03.028Z,10.23
2023-05-19T19:03:31.792Z,9.73
2023-05-19T19:06:00.747Z,9.32
2023-05-19T19:08:29.094Z,9.70
2023-05-19T19:11:00.526Z,9.73
2023-05-19T19:13:29.053Z,9.07
2023-05-19T19:15:57.006Z,9.07
2023-05-19T19:18:26.419Z,9.02
2023-05-19T19:20:55.227Z,9.30
2023-05-19T19:23:24.113Z,8.57
2023-05-19T19:25:52.227Z,8.13
2023-05-19T19:28:21.046Z,9.30
2023-05-19T19:30:49.991Z,9.43
2023-05-19T19:33:18.435Z,11.10
2023-05-19T19:35:47.211Z,11.05
2023-05-19T19:38:15.415Z,11.20
2023-05-19T19:40:43.402Z,11.02
2023-05-19T19:43:11.684Z,11.82
2023-05-19T19:45:39.955Z,13.20
2023-05-19T19:48:09.629Z,12.73
2023-05-19T19:50:39.130Z,12.85
2023-05-19T19:53:09.030Z,13.15
2023-05-19T19:55:37.042Z,12.13
2023-05-19T19:58:05.288Z,12.25
2023-05-19T20:00:33.363Z,11.60
2023-05-19T20:03:05.507Z,13.50
2023-05-19T20:05:34.553Z,12.13
2023-05-19T20:08:02.830Z,13.57
2023-05-19T20:10:30.684Z,12.75
2023-05-19T20:12:59.771Z,13.10
2023-05-19T20:15:28.338Z,12.00
2023-05-19T20:17:56.579Z,12.98
2023-05-19T20:20:25.086Z,14.55
2023-05-19T20:22:53.350Z,12.55
2023-05-19T20:25:21.268Z,13.43
2023-05-19T20:27:50.431Z,13.73
2023-05-19T20:30:18.780Z,13.25
2023-05-19T20:32:50.982Z,12.10
2023-05-19T20:35:19.385Z,12.15
2023-05-19T20:37:48.266Z,10.20
2023-05-19T20:40:16.274Z,12.75
2023-05-19T20:42:45.115Z,15.13
2023-05-19T20:45:13.046Z,12.75
2023-05-19T20:47:41.298Z,9.80
2023-05-19T20:50:09.641Z,10.60
2023-05-19T20:52:37.922Z,13.50
2023-05-19T20:55:06.001Z,15.88
2023-05-19T20:57:34.520Z,12.57
2023-05-19T21:00:02.902Z,12.70
2023-05-19T21:02:37.980Z,12.75
2023-05-19T21:05:06.324Z,12.43
2023-05-19T21:07:34.715Z,13.70
2023-05-19T21:10:02.957Z,16.10
2023-05-19T21:12:34.324Z,14.50
2023-05-19T21:15:03.988Z,12.65
2023-05-19T21:17:32.418Z,12.70
2023-05-19T21:20:00.940Z,16.25
2023-05-19T21:22:32.425Z,16.27
2023-05-19T21:25:00.445Z,17.98
2023-05-19T21:27:28.677Z,18.33
2023-05-19T21:29:56.612Z,18.88
2023-05-19T21:32:41.622Z,19.80
2023-05-19T21:35:09.814Z,19.00
2023-05-19T21:37:38.634Z,20.85
2023-05-19T21:40:08.311Z,19.52
2023-05-19T21:42:36.876Z,20.23
2023-05-19T21:45:05.399Z,19.08
2023-05-19T21:47:34.741Z,21.30
2023-05-19T21:50:02.879Z,21.13
2023-05-19T21:52:32.681Z,20.75
2023-05-19T21:55:00.511Z,20.42
2023-05-19T21:57:28.711Z,21.38
2023-05-19T21:59:56.853Z,20.48
2023-05-19T22:02:27.694Z,19.90
2023-05-19T22:05:16.424Z,18.67
2023-05-19T22:07:46.530Z,19.38
2023-05-19T22:10:14.622Z,17.67
2023-05-19T22:12:42.928Z,18.98
2023-05-19T22:15:11.814Z,18.15
2023-05-19T22:17:40.109Z,18.63
2023-05-19T22:20:08.590Z,18.77
2023-05-19T22:22:36.931Z,18.08
2023-05-19T22:25:05.326Z,19.15
2023-05-19T22:27:33.569Z,18.27
2023-05-19T22:30:01.475Z,19.70
2023-05-19T22:32:33.255Z,18.30
2023-05-19T22:35:01.735Z,18.73
2023-05-19T22:37:32.501Z,17.83
2023-05-19T22:40:00.573Z,17.00
2023-05-19T22:42:30.975Z,16.73
2023-05-19T22:44:59.285Z,18.38
2023-05-19T22:47:27.785Z,16.45
2023-05-19T22:49:57.183Z,17.05
2023-05-19T22:52:26.210Z,17.73
2023-05-19T22:54:54.152Z,16.77
2023-05-19T22:57:22.628Z,16.35
2023-05-19T22:59:50.626Z,17.35
2023-05-19T23:02:20.037Z,19.00
2023-05-19T23:04:48.146Z,18.30
2023-05-19T23:07:16.446Z,19.88
2023-05-19T23:09:44.336Z,19.38
2023-05-19T23:12:12.794Z,20.75
2023-05-19T23:14:40.637Z,19.77
2023-05-19T23:17:09.153Z,18.20
2023-05-19T23:19:37.516Z,19.40
2023-05-19T23:22:05.905Z,18.92
2023-05-19T23:24:35.797Z,18.40
2023-05-19T23:27:04.135Z,19.15
2023-05-19T23:29:32.136Z,18.95
2023-05-19T23:32:00.509Z,18.45
2023-05-19T23:34:28.570Z,20.98
2023-05-19T23:36:56.729Z,20.58
2023-05-19T23:39:25.638Z,22.80
2023-05-19T23:41:53.839Z,22.13
2023-05-19T23:44:21.787Z,22.58
2023-05-19T23:46:50.537Z,22.75
2023-05-19T23:49:18.529Z,22.50
2023-05-19T23:51:47.008Z,22.73
2023-05-19T23:54:14.799Z,21.33
2023-05-19T23:56:43.116Z,23.02
2023-05-19T23:59:12.210Z,22.85
